createdAt,value
2022-09-27T00:01:27.190Z,27.55
2022-09-27T00:03:56.639Z,27.32
2022-09-27T00:06:34.904Z,27.43
2022-09-27T00:09:06.139Z,27.38
2022-09-27T00:11:38.203Z,27.39
2022-09-27T00:14:09.092Z,27.42
2022-09-27T00:16:40.567Z,27.37
2022-09-27T00:19:16.598Z,27.35
2022-09-27T00:21:47.355Z,27.26
2022-09-27T00:24:19.547Z,27.33
2022-09-27T00:26:50.179Z,27.27
2022-09-27T00:29:20.708Z,27.33
2022-09-27T00:31:50.337Z,27.27
2022-09-27T00:34:27.616Z,27.36
2022-09-27T00:36:56.831Z,27.27
2022-09-27T00:39:26.358Z,27.28
2022-09-27T00:41:55.841Z,27.24
2022-09-27T00:44:34.632Z,27.23
2022-09-27T00:47:24.133Z,27.33
2022-09-27T00:50:04.197Z,27.29
2022-09-27T00:53:03.164Z,27.34
2022-09-27T00:55:42.340Z,27.36
2022-09-27T00:58:14.725Z,27.28
2022-09-27T01:00:51.464Z,27.29
2022-09-27T01:03:45.946Z,27.38
2022-09-27T01:06:20.725Z,27.23
2022-09-27T01:08:52.367Z,27.28
2022-09-27T01:11:41.193Z,27.37
2022-09-27T01:14:30.304Z,27.38
2022-09-27T01:17:03.595Z,27.22
2022-09-27T01:20:17.176Z,27.44
2022-09-27T01:22:56.584Z,27.39
2022-09-27T01:25:52.024Z,27.38
2022-09-27T01:29:00.590Z,27.52
2022-09-27T01:31:34.459Z,27.43
2022-09-27T01:34:10.378Z,27.56
2022-09-27T01:37:09.883Z,27.59
2022-09-27T01:39:55.943Z,27.58
2022-09-27T01:43:01.408Z,27.74
2022-09-27T01:46:00.209Z,27.73
2022-09-27T01:48:53.666Z,27.50
2022-09-27T01:51:38.009Z,27.74
2022-09-27T01:54:10.486Z,27.69
2022-09-27T01:56:53.426Z,27.78
2022-09-27T01:59:43.466Z,27.78
2022-09-27T02:02:57.153Z,27.86
2022-09-27T02:05:44.352Z,27.99
2022-09-27T02:08:43.045Z,28.02
2022-09-27T02:11:23.344Z,27.95
2022-09-27T02:14:13.111Z,28.05
2022-09-27T02:17:01.183Z,28.03
2022-09-27T02:19:36.620Z,27.94
2022-09-27T02:22:12.567Z,28.04
2022-09-27T02:24:45.738Z,28.09
2022-09-27T02:27:22.948Z,28.18
2022-09-27T02:30:02.555Z,28.21
2022-09-27T02:32:35.874Z,28.29
2022-09-27T02:35:10.596Z,28.51
2022-09-27T02:37:40.537Z,28.38
2022-09-27T02:40:11.379Z,28.41
2022-09-27T02:42:44.660Z,28.45
2022-09-27T02:45:17.388Z,28.52
2022-09-27T02:48:21.637Z,28.71
2022-09-27T02:51:11.143Z,28.68
2022-09-27T02:53:59.005Z,28.71
2022-09-27T02:57:07.337Z,28.82
2022-09-27T03:00:13.423Z,28.89
2022-09-27T03:03:21.193Z,28.88
2022-09-27T03:06:06.979Z,28.92
2022-09-27T03:08:38.610Z,29.01
2022-09-27T03:11:08.914Z,29.26
2022-09-27T03:14:01.450Z,29.10
2022-09-27T03:16:30.739Z,29.09
2022-09-27T03:19:20.513Z,29.16
2022-09-27T03:22:10.850Z,29.31
2022-09-27T03:24:40.792Z,29.32
2022-09-27T03:27:11.743Z,29.29
2022-09-27T03:29:41.718Z,29.41
2022-09-27T03:32:12.717Z,29.45
2022-09-27T03:35:11.291Z,29.51
2022-09-27T03:37:42.278Z,29.44
2022-09-27T03:40:13.990Z,29.69
2022-09-27T03:42:48.856Z,29.81
2022-09-27T03:45:20.699Z,29.85
2022-09-27T03:47:50.549Z,29.82
2022-09-27T03:50:21.164Z,30.03
2022-09-27T03:52:51.005Z,30.08
2022-09-27T03:55:21.077Z,30.04
2022-09-27T03:57:51.200Z,29.99
2022-09-27T04:00:21.856Z,30.27
2022-09-27T04:02:52.069Z,30.37
2022-09-27T04:05:25.440Z,30.49
2022-09-27T04:08:01.223Z,30.40
2022-09-27T04:10:33.716Z,30.56
2022-09-27T04:13:04.073Z,30.64
2022-09-27T04:15:40.980Z,30.69
2022-09-27T04:18:28.966Z,30.78
2022-09-27T04:21:17.246Z,30.76
2022-09-27T04:23:53.040Z,30.94
2022-09-27T04:26:27.163Z,31.02
2022-09-27T04:29:13.937Z,30.88
2022-09-27T04:31:50.656Z,30.90
2022-09-27T04:34:46.366Z,30.89
2022-09-27T04:37:23.122Z,31.17
2022-09-27T04:39:56.990Z,31.22
2022-09-27T04:42:28.773Z,31.12
2022-09-27T04:44:58.117Z,31.29
2022-09-27T04:47:27.441Z,31.42
2022-09-27T04:49:56.544Z,31.49
2022-09-27T04:52:25.840Z,31.54
2022-09-27T04:54:57.693Z,31.60
2022-09-27T04:57:27.226Z,31.73
2022-09-27T04:59:56.330Z,31.70
2022-09-27T05:02:26.187Z,31.84
2022-09-27T05:05:17.988Z,31.98
2022-09-27T05:07:47.347Z,31.73
2022-09-27T05:10:28.259Z,31.66
2022-09-27T05:12:57.624Z,31.66
2022-09-27T05:15:26.922Z,31.67
2022-09-27T05:18:19.330Z,31.62
2022-09-27T05:21:07.115Z,31.85
2022-09-27T05:23:44.655Z,31.84
2022-09-27T05:26:16.749Z,31.79
2022-09-27T05:28:48.299Z,32.00
2022-09-27T05:31:18.101Z,32.24
2022-09-27T05:33:47.337Z,32.01
2022-09-27T05:36:33.607Z,32.24
2022-09-27T05:39:03.022Z,32.31
2022-09-27T05:41:33.764Z,32.47
2022-09-27T05:44:03.363Z,32.49
2022-09-27T05:46:32.505Z,32.57
2022-09-27T05:49:01.963Z,32.63
2022-09-27T05:51:31.636Z,32.69
2022-09-27T05:54:00.868Z,32.67
2022-09-27T05:56:31.313Z,32.77
2022-09-27T05:59:23.695Z,32.68
2022-09-27T06:02:13.631Z,32.44
2022-09-27T06:05:04.691Z,32.69
2022-09-27T06:08:06.120Z,32.89
2022-09-27T06:10:42.882Z,32.93
2022-09-27T06:13:16.461Z,33.15
2022-09-27T06:15:48.290Z,33.22
2022-09-27T06:18:19.177Z,33.24
2022-09-27T06:20:52.457Z,33.25
2022-09-27T06:23:24.865Z,33.36
2022-09-27T06:25:56.543Z,33.39
2022-09-27T06:29:05.100Z,33.46
2022-09-27T06:31:36.667Z,33.54
2022-09-27T06:34:25.958Z,33.49
2022-09-27T06:36:56.955Z,33.52
2022-09-27T06:39:28.016Z,33.60
2022-09-27T06:42:29.083Z,33.48
2022-09-27T06:45:21.572Z,33.62
2022-09-27T06:48:26.076Z,33.70
2022-09-27T06:51:01.727Z,33.85
2022-09-27T06:53:31.175Z,34.01
2022-09-27T06:56:02.282Z,34.05
2022-09-27T06:59:00.482Z,34.09
2022-09-27T07:01:53.770Z,34.12
2022-09-27T07:04:41.760Z,34.18
2022-09-27T07:07:33.781Z,34.25
2022-09-27T07:10:09.004Z,34.32
2022-09-27T07:12:40.479Z,34.25
2022-09-27T07:15:11.541Z,34.20
2022-09-27T07:17:41.641Z,34.23
2022-09-27T07:20:11.560Z,34.07
2022-09-27T07:22:46.430Z,33.96
2022-09-27T07:25:16.625Z,33.98
2022-09-27T07:27:46.379Z,33.92
2022-09-27T07:30:16.115Z,34.16
2022-09-27T07:32:46.075Z,34.02
2022-09-27T07:35:16.560Z,33.85
2022-09-27T07:37:46.504Z,34.04
2022-09-27T07:40:16.639Z,34.19
2022-09-27T07:43:00.398Z,34.37
2022-09-27T07:45:34.424Z,34.28
2022-09-27T07:48:21.543Z,34.22
2022-09-27T07:51:01.351Z,33.93
2022-09-27T07:53:43.018Z,34.40
2022-09-27T07:56:48.519Z,34.31
2022-09-27T07:59:20.049Z,34.27
2022-09-27T08:01:49.752Z,34.06
2022-09-27T08:04:19.175Z,34.15
2022-09-27T08:06:49.042Z,34.04
2022-09-27T08:09:19.178Z,34.03
2022-09-27T08:11:49.676Z,33.88
2022-09-27T08:14:19.743Z,34.10
2022-09-27T08:16:52.717Z,34.01
2022-09-27T08:19:31.183Z,34.08
2022-09-27T08:22:06.149Z,34.07
2022-09-27T08:24:43.313Z,33.92
2022-09-27T08:27:31.719Z,33.82
2022-09-27T08:30:05.118Z,33.85
2022-09-27T08:32:34.900Z,33.69
2022-09-27T08:35:05.050Z,33.92
2022-09-27T08:37:34.425Z,33.97
2022-09-27T08:40:04.533Z,34.01
2022-09-27T08:43:00.331Z,33.76
2022-09-27T08:45:40.501Z,33.85
2022-09-27T08:48:12.744Z,33.96
2022-09-27T08:50:47.526Z,34.01
2022-09-27T08:53:20.608Z,33.97
2022-09-27T08:55:57.902Z,33.85
2022-09-27T08:58:38.874Z,33.96
2022-09-27T09:01:19.125Z,33.89
2022-09-27T09:04:05.624Z,33.95
2022-09-27T09:07:14.679Z,34.08
2022-09-27T09:09:55.978Z,34.11
2022-09-27T09:12:47.953Z,33.87
2022-09-27T09:15:21.255Z,33.83
2022-09-27T09:18:21.720Z,33.84
2022-09-27T09:22:01.497Z,33.97
2022-09-27T09:24:34.185Z,33.92
2022-09-27T09:27:31.860Z,33.86
2022-09-27T09:30:08.267Z,33.66
2022-09-27T09:33:03.760Z,33.72
2022-09-27T09:35:56.129Z,33.73
2022-09-27T09:38:51.940Z,33.90
2022-09-27T09:41:24.709Z,33.77
2022-09-27T09:44:07.132Z,33.98
2022-09-27T09:46:47.920Z,33.84
2022-09-27T09:49:24.148Z,33.77
2022-09-27T09:52:09.273Z,33.69
2022-09-27T09:54:52.400Z,33.65
2022-09-27T09:57:33.562Z,33.73
2022-09-27T10:00:22.942Z,33.83
2022-09-27T10:02:57.203Z,33.79
2022-09-27T10:05:29.901Z,33.74
2022-09-27T10:08:09.000Z,33.67
2022-09-27T10:10:38.607Z,33.54
2022-09-27T10:13:36.877Z,33.58
2022-09-27T10:16:14.231Z,33.45
2022-09-27T10:18:47.722Z,33.36
2022-09-27T10:21:35.547Z,33.32
2022-09-27T10:24:18.768Z,33.20
2022-09-27T10:27:10.422Z,33.01
2022-09-27T10:29:42.070Z,33.02
2022-09-27T10:32:26.480Z,33.02
2022-09-27T10:35:32.166Z,33.04
2022-09-27T10:38:22.850Z,32.98
2022-09-27T10:41:00.121Z,32.86
2022-09-27T10:43:36.314Z,32.88
2022-09-27T10:46:34.534Z,32.90
2022-09-27T10:49:29.731Z,32.84
2022-09-27T10:52:07.784Z,32.73
2022-09-27T10:54:39.111Z,32.71
2022-09-27T10:57:31.134Z,32.82
2022-09-27T11:00:21.431Z,32.72
2022-09-27T11:02:58.081Z,32.72
2022-09-27T11:05:40.594Z,32.75
2022-09-27T11:08:34.727Z,32.75
2022-09-27T11:11:29.585Z,32.60
2022-09-27T11:14:06.210Z,32.71
2022-09-27T11:17:00.125Z,32.68
2022-09-27T11:19:59.531Z,32.81
2022-09-27T11:22:38.900Z,32.69
2022-09-27T11:25:22.415Z,32.50
2022-09-27T11:28:10.534Z,32.48
2022-09-27T11:31:04.359Z,32.28
2022-09-27T11:33:59.534Z,32.25
2022-09-27T11:36:53.702Z,32.25
2022-09-27T11:39:44.786Z,32.33
2022-09-27T11:42:35.596Z,32.43
2022-09-27T11:45:41.067Z,32.44
2022-09-27T11:48:33.033Z,32.38
2022-09-27T11:51:28.940Z,32.37
2022-09-27T11:54:26.868Z,32.31
2022-09-27T11:57:01.969Z,32.36
2022-09-27T11:59:41.077Z,32.29
2022-09-27T12:02:13.631Z,32.21
2022-09-27T12:04:54.957Z,32.27
2022-09-27T12:07:38.962Z,32.27
2022-09-27T12:10:16.300Z,32.17
2022-09-27T12:12:52.745Z,32.15
2022-09-27T12:15:31.191Z,32.04
2022-09-27T12:18:21.410Z,32.12
2022-09-27T12:20:52.693Z,31.97
2022-09-27T12:23:42.130Z,32.02
2022-09-27T12:26:41.176Z,31.92
2022-09-27T12:29:22.109Z,31.87
2022-09-27T12:32:11.470Z,31.65
2022-09-27T12:35:01.947Z,31.56
2022-09-27T12:37:47.264Z,31.50
2022-09-27T12:40:40.223Z,31.47
2022-09-27T12:43:36.389Z,31.35
2022-09-27T12:46:42.137Z,31.36
2022-09-27T12:49:37.872Z,31.13
2022-09-27T12:52:13.274Z,31.02
2022-09-27T12:54:54.415Z,31.05
2022-09-27T12:57:23.630Z,30.92
2022-09-27T13:00:11.537Z,30.93
2022-09-27T13:03:15.262Z,30.94
2022-09-27T13:06:01.054Z,30.92
2022-09-27T13:09:14.306Z,30.85
2022-09-27T13:11:56.547Z,30.70
2022-09-27T13:14:32.958Z,30.74
2022-09-27T13:17:03.528Z,30.65
2022-09-27T13:19:40.784Z,30.64
2022-09-27T13:22:39.947Z,30.70
2022-09-27T13:26:04.995Z,30.64
2022-09-27T13:28:59.206Z,30.57
2022-09-27T13:31:56.683Z,30.57
2022-09-27T13:34:57.621Z,30.50
2022-09-27T13:37:47.479Z,30.36
2022-09-27T13:40:20.680Z,30.33
2022-09-27T13:43:12.330Z,30.39
2022-09-27T13:45:57.014Z,30.33
2022-09-27T13:48:52.271Z,30.40
2022-09-27T13:51:34.970Z,30.24
2022-09-27T13:54:28.843Z,30.36
2022-09-27T13:56:58.533Z,30.22
2022-09-27T13:59:33.193Z,30.36
2022-09-27T14:02:33.248Z,30.27
2022-09-27T14:05:04.516Z,30.16
2022-09-27T14:07:43.773Z,30.23
2022-09-27T14:10:19.747Z,30.20
2022-09-27T14:12:51.118Z,30.14
2022-09-27T14:15:39.587Z,30.27
2022-09-27T14:18:13.462Z,30.20
2022-09-27T14:20:54.177Z,30.27
2022-09-27T14:23:43.105Z,30.11
2022-09-27T14:26:31.157Z,30.20
2022-09-27T14:29:00.937Z,30.07
2022-09-27T14:31:34.787Z,30.02
2022-09-27T14:34:09.785Z,30.14
2022-09-27T14:37:03.024Z,30.00
2022-09-27T14:39:39.431Z,30.01
2022-09-27T14:42:26.244Z,30.02
2022-09-27T14:45:02.100Z,30.03
2022-09-27T14:47:32.075Z,30.00
2022-09-27T14:50:34.091Z,30.08
2022-09-27T14:53:06.363Z,29.97
2022-09-27T14:55:35.997Z,30.14
2022-09-27T14:58:06.681Z,29.97
2022-09-27T15:00:38.429Z,29.98
2022-09-27T15:03:11.648Z,29.98
2022-09-27T15:05:44.435Z,29.95
2022-09-27T15:08:16.803Z,29.91
2022-09-27T15:10:45.891Z,30.05
2022-09-27T15:13:20.730Z,29.96
2022-09-27T15:15:50.738Z,29.84
2022-09-27T15:18:46.680Z,29.95
2022-09-27T15:21:38.954Z,29.96
2022-09-27T15:24:37.407Z,29.95
2022-09-27T15:27:23.497Z,29.95
2022-09-27T15:29:56.051Z,29.87
2022-09-27T15:32:31.106Z,29.82
2022-09-27T15:35:11.878Z,29.90
2022-09-27T15:37:42.877Z,29.77
2022-09-27T15:40:19.876Z,29.84
2022-09-27T15:43:02.645Z,29.87
2022-09-27T15:45:41.183Z,29.78
2022-09-27T15:48:21.152Z,29.88
2022-09-27T15:50:54.378Z,29.81
2022-09-27T15:53:55.184Z,29.93
2022-09-27T15:56:24.722Z,29.84
2022-09-27T15:58:54.941Z,29.84
2022-09-27T16:01:26.722Z,29.81
2022-09-27T16:04:01.532Z,29.93
2022-09-27T16:06:31.576Z,29.83
2022-09-27T16:09:03.863Z,29.80
2022-09-27T16:11:33.054Z,30.01
2022-09-27T16:14:02.531Z,29.76
2022-09-27T16:16:32.132Z,29.73
2022-09-27T16:19:01.760Z,29.70
2022-09-27T16:21:33.973Z,29.76
2022-09-27T16:24:06.341Z,29.69
2022-09-27T16:26:37.005Z,29.69
2022-09-27T16:29:13.692Z,29.73
2022-09-27T16:31:44.130Z,29.57
2022-09-27T16:34:19.084Z,29.69
2022-09-27T16:36:51.740Z,29.59
2022-09-27T16:39:27.155Z,29.59
2022-09-27T16:41:56.207Z,29.76
2022-09-27T16:44:25.683Z,29.57
2022-09-27T16:46:55.422Z,29.50
2022-09-27T16:49:43.023Z,29.47
2022-09-27T16:52:12.569Z,29.45
2022-09-27T16:54:43.648Z,29.48
2022-09-27T16:57:14.541Z,29.36
2022-09-27T16:59:44.902Z,29.40
2022-09-27T17:02:14.719Z,29.34
2022-09-27T17:04:46.613Z,29.37
2022-09-27T17:07:16.320Z,29.38
2022-09-27T17:09:46.904Z,29.37
2022-09-27T17:12:17.296Z,29.30
2022-09-27T17:14:46.958Z,29.29
2022-09-27T17:17:16.950Z,29.33
2022-09-27T17:19:46.663Z,29.32
2022-09-27T17:22:16.232Z,29.34
2022-09-27T17:24:46.281Z,29.37
2022-09-27T17:27:16.157Z,29.36
2022-09-27T17:29:46.312Z,29.35
2022-09-27T17:32:15.829Z,29.33
2022-09-27T17:34:46.719Z,29.27
2022-09-27T17:37:16.132Z,29.31
2022-09-27T17:39:45.348Z,29.29
2022-09-27T17:42:15.086Z,29.29
2022-09-27T17:44:44.733Z,29.29
2022-09-27T17:47:32.223Z,29.29
2022-09-27T17:50:19.703Z,29.25
2022-09-27T17:52:49.108Z,29.27
2022-09-27T17:55:18.719Z,29.21
2022-09-27T17:57:51.848Z,29.32
2022-09-27T18:00:22.013Z,29.24
2022-09-27T18:02:51.476Z,29.13
2022-09-27T18:05:22.170Z,29.09
2022-09-27T18:07:52.466Z,29.13
2022-09-27T18:10:22.022Z,29.09
2022-09-27T18:12:52.095Z,29.07
2022-09-27T18:15:23.030Z,29.02
2022-09-27T18:17:58.005Z,29.01
2022-09-27T18:20:27.589Z,28.99
2022-09-27T18:22:57.049Z,28.99
2022-09-27T18:25:26.099Z,28.95
2022-09-27T18:27:56.673Z,28.97
2022-09-27T18:30:26.795Z,28.96
2022-09-27T18:32:55.640Z,28.87
2022-09-27T18:35:26.306Z,28.92
2022-09-27T18:37:55.794Z,28.87
2022-09-27T18:40:51.580Z,28.87
2022-09-27T18:43:15.384Z,28.90
2022-09-27T18:45:45.314Z,28.79
2022-09-27T18:48:14.756Z,28.76
2022-09-27T18:50:46.512Z,28.76
2022-09-27T18:53:16.629Z,28.75
2022-09-27T18:55:46.626Z,28.77
2022-09-27T18:58:18.065Z,28.78
2022-09-27T19:00:47.712Z,28.82
2022-09-27T19:03:17.874Z,28.78
2022-09-27T19:06:01.824Z,28.91
2022-09-27T19:08:32.295Z,28.82
2022-09-27T19:11:10.740Z,28.90
2022-09-27T19:13:50.271Z,28.76
2022-09-27T19:16:22.728Z,28.76
2022-09-27T19:18:53.098Z,28.73
2022-09-27T19:21:25.696Z,28.78
2022-09-27T19:23:55.487Z,28.84
2022-09-27T19:26:28.154Z,28.72
2022-09-27T19:29:00.289Z,28.64
2022-09-27T19:31:31.105Z,28.68
2022-09-27T19:34:00.888Z,28.63
2022-09-27T19:36:31.744Z,28.64
2022-09-27T19:39:02.405Z,28.65
2022-09-27T19:41:32.666Z,28.68
2022-09-27T19:44:02.578Z,28.66
2022-09-27T19:46:31.533Z,28.64
2022-09-27T19:49:02.006Z,28.68
2022-09-27T19:51:32.013Z,28.67
2022-09-27T19:54:01.289Z,28.58
2022-09-27T19:56:30.353Z,28.55
2022-09-27T19:59:02.632Z,28.54
2022-09-27T20:01:34.303Z,28.52
2022-09-27T20:04:03.911Z,28.54
2022-09-27T20:06:33.915Z,28.46
2022-09-27T20:09:05.819Z,28.50
2022-09-27T20:11:35.866Z,28.59
2022-09-27T20:14:05.136Z,28.55
2022-09-27T20:16:36.122Z,28.54
2022-09-27T20:19:09.843Z,28.56
2022-09-27T20:21:39.708Z,28.56
2022-09-27T20:24:09.004Z,28.50
2022-09-27T20:26:39.036Z,28.46
2022-09-27T20:29:09.018Z,28.49
2022-09-27T20:32:01.501Z,28.53
2022-09-27T20:34:32.177Z,28.49
2022-09-27T20:37:01.537Z,28.48
2022-09-27T20:39:30.555Z,28.43
2022-09-27T20:41:59.611Z,28.45
2022-09-27T20:44:28.811Z,28.42
2022-09-27T20:46:57.786Z,28.43
2022-09-27T20:49:27.582Z,28.43
2022-09-27T20:51:56.922Z,28.41
2022-09-27T20:54:26.024Z,28.43
2022-09-27T20:56:54.938Z,28.40
2022-09-27T20:59:24.579Z,28.41
2022-09-27T21:01:54.468Z,28.35
2022-09-27T21:04:24.633Z,28.39
2022-09-27T21:06:53.934Z,28.34
2022-09-27T21:09:23.415Z,28.30
2022-09-27T21:11:54.997Z,28.22
2022-09-27T21:14:24.322Z,28.27
2022-09-27T21:16:53.406Z,28.29
2022-09-27T21:19:22.299Z,28.28
2022-09-27T21:21:53.250Z,28.29
2022-09-27T21:24:22.260Z,28.24
2022-09-27T21:26:51.197Z,28.21
2022-09-27T21:29:20.751Z,28.21
2022-09-27T21:31:49.985Z,28.18
2022-09-27T21:34:19.203Z,28.13
2022-09-27T21:36:48.282Z,28.14
2022-09-27T21:39:17.995Z,28.20
2022-09-27T21:41:47.494Z,28.11
2022-09-27T21:44:16.409Z,28.09
2022-09-27T21:46:45.567Z,28.09
2022-09-27T21:49:15.021Z,28.02
2022-09-27T21:51:45.528Z,28.04
2022-09-27T21:54:16.433Z,28.14
2022-09-27T21:56:46.029Z,28.17
2022-09-27T21:59:16.894Z,28.18
2022-09-27T22:01:47.433Z,28.16
2022-09-27T22:04:17.064Z,28.13
2022-09-27T22:06:46.202Z,28.09
2022-09-27T22:09:19.902Z,28.14
2022-09-27T22:11:49.129Z,28.10
2022-09-27T22:14:20.776Z,28.12
2022-09-27T22:16:50.364Z,28.11
2022-09-27T22:19:19.681Z,28.18
2022-09-27T22:21:48.791Z,28.12
2022-09-27T22:24:19.666Z,28.10
2022-09-27T22:26:51.685Z,28.13
2022-09-27T22:29:21.319Z,28.01
2022-09-27T22:31:50.406Z,28.01
2022-09-27T22:34:29.802Z,28.01
2022-09-27T22:37:01.317Z,28.00
2022-09-27T22:39:30.885Z,28.03
2022-09-27T22:41:59.982Z,27.98
2022-09-27T22:44:29.121Z,28.01
2022-09-27T22:46:58.404Z,27.97
2022-09-27T22:49:27.937Z,27.93
2022-09-27T22:51:59.273Z,27.98
2022-09-27T22:54:28.466Z,28.03
2022-09-27T22:56:58.193Z,27.97
2022-09-27T22:59:28.566Z,27.98
2022-09-27T23:01:58.361Z,28.01
2022-09-27T23:04:27.529Z,27.94
2022-09-27T23:06:56.863Z,27.95
2022-09-27T23:09:26.952Z,27.96
2022-09-27T23:11:56.630Z,27.94
2022-09-27T23:14:27.337Z,27.89
2022-09-27T23:16:56.287Z,27.86
2022-09-27T23:19:27.714Z,27.81
2022-09-27T23:21:57.268Z,27.84
2022-09-27T23:24:26.485Z,27.84
2022-09-27T23:27:14.485Z,27.83
2022-09-27T23:29:44.785Z,27.86
2022-09-27T23:32:14.261Z,27.88
2022-09-27T23:34:43.382Z,27.89
2022-09-27T23:37:12.776Z,27.91
2022-09-27T23:39:42.181Z,27.88
2022-09-27T23:42:11.710Z,27.72
2022-09-27T23:44:40.679Z,27.72
2022-09-27T23:47:09.616Z,27.80
2022-09-27T23:49:39.077Z,27.82
2022-09-27T23:52:08.472Z,27.87
2022-09-27T23:54:37.319Z,27.81
2022-09-27T23:57:06.772Z,27.69
2022-09-27T23:59:36.293Z,27.70
